Latest Weather Observations for Warragul (Nilma North)

IDV60801

Issued at 8:05 pm EST Wednesday 23 July 2014 (issued every 30 minutes, with the page automatically refreshed every 10 minutes)

About weather observations | Map of weather stations | Latest weather observations for VIC | Other Formats
Station Details ID: 085313 Name: NILMA NORTH (WARRAGUL) Lat: -38.13 Lon: 145.99 Height: 134.11 m
Data from the previous 72 hours. | See also: Recent months for locations in Victoria
Date/Time
EST
Temp
°C
App
Temp
°C
Dew
Point
Rel
Hum
%
Delta-T
°C
Wind Press
QNH
hPa
Press
MSL
hPa
Rain
since 9 am
mm
Dir
 
Spd
km/h
Gust
km/h
Spd
kts
Gust
kts
23/08:00pm 7.7 5.1 6.3 91 0.6 E 9 17 5 9 1020.1 1020.4 0.0
23/07:30pm 8.1 5.2 6.6 90 0.7 E 11 15 6 8 1019.9 - 0.0
23/07:00pm 7.6 5.1 6.5 93 0.5 E 9 13 5 7 1019.9 1020.2 0.0
23/06:30pm 6.0 4.4 4.6 91 0.6 E 2 7 1 4 1019.8 - 0.0
23/06:00pm 7.8 6.8 5.6 86 1.0 CALM 0 0 0 0 1019.8 1020.1 0.0
23/05:30pm 8.4 7.6 6.4 87 0.9 CALM 0 2 0 1 1019.6 - 0.0
23/05:00pm 9.0 7.5 6.8 86 1.0 E 4 6 2 3 1019.4 1019.7 0.0
23/04:30pm 9.8 7.9 6.9 82 1.4 E 6 9 3 5 1019.6 - 0.0
23/04:00pm 11.0 9.0 7.3 78 1.8 E 7 11 4 6 1019.7 1020.0 0.0
23/03:30pm 11.4 9.5 7.5 77 1.9 E 7 11 4 6 1019.7 - 0.0
23/03:00pm 11.3 9.5 7.8 79 1.7 ESE 7 9 4 5 1019.8 1020.1 0.0
23/02:30pm 11.5 9.7 7.8 78 1.8 E 7 11 4 6 1019.9 - 0.0
23/02:00pm 11.4 9.1 7.5 77 1.9 E 9 13 5 7 1020.2 1020.5 0.0
23/01:30pm 11.4 9.1 7.5 77 1.9 E 9 13 5 7 1020.6 - 0.0
23/01:00pm 11.1 8.3 7.0 76 2.0 E 11 17 6 9 1021.1 1021.4 0.0
23/12:30pm 10.6 7.9 7.3 80 1.6 E 11 19 6 10 1021.8 - 0.0
23/12:00pm 9.6 6.7 6.5 81 1.4 E 11 15 6 8 1022.4 1022.6 0.0
23/11:30am 8.8 6.5 5.5 80 1.5 ESE 7 13 4 7 1023.0 - 0.0
23/11:00am 7.5 4.6 4.5 81 1.3 ESE 9 11 5 6 1023.4 1023.6 0.0
23/10:30am 6.6 4.0 4.1 84 1.1 ESE 7 11 4 6 1023.6 - 0.0
23/10:00am 5.1 2.6 3.8 91 0.5 ESE 6 7 3 4 1023.9 1024.2 0.0
23/09:30am 4.0 1.9 4.0 100 0.0 ESE 4 6 2 3 1023.9 - 0.0
23/09:00am 2.3 0.7 2.3 100 0.0 CALM 0 0 0 0 1024.0 1024.3 0.2
23/08:30am 1.5 -0.3 1.5 100 0.0 CALM 0 0 0 0 1024.1 - 0.2
23/08:00am 0.8 -1.1 0.8 100 0.0 CALM 0 0 0 0 1024.2 1024.5 0.2
23/07:30am 1.0 -0.8 1.0 100 0.0 CALM 0 0 0 0 1024.1 - 0.0
23/07:00am 1.1 -0.7 1.1 100 0.0 CALM 0 0 0 0 1024.0 1024.3 0.0
23/06:30am 1.4 -0.4 1.4 100 0.0 CALM 0 0 0 0 1023.8 - 0.0
23/06:00am 1.4 -0.4 1.4 100 0.0 ESE 0 0 0 0 1023.5 1023.8 0.0
23/05:30am 1.5 -0.3 1.5 100 0.0 CALM 0 0 0 0 1023.4 - 0.0
23/05:00am 1.6 -0.1 1.6 100 0.0 CALM 0 0 0 0 1023.5 1023.8 0.0
23/04:30am 1.6 -0.1 1.6 100 0.0 CALM 0 0 0 0 1023.4 - 0.0
23/04:00am 1.8 0.1 1.8 100 0.0 CALM 0 0 0 0 1023.3 1023.5 0.0
23/03:30am 2.0 0.3 1.9 99 0.0 CALM 0 0 0 0 1023.4 - 0.0
23/03:00am 3.2 1.7 3.2 100 0.0 CALM 0 0 0 0 1023.7 1024.0 0.0
23/02:30am 3.0 1.5 3.0 100 0.0 CALM 0 0 0 0 1023.8 - 0.0
23/02:00am 2.6 1.0 2.6 100 0.0 CALM 0 0 0 0 1023.8 1024.1 0.0
23/01:30am 2.6 1.0 2.6 100 0.0 CALM 0 0 0 0 1024.0 - 0.0
23/01:00am 3.6 2.2 3.6 100 0.0 CALM 0 0 0 0 1024.0 1024.3 0.0
23/12:30am 2.9 1.0 2.9 100 0.0 N 2 4 1 2 1024.1 - 0.0
23/12:00am 3.5 2.1 3.5 100 0.0 NE 0 2 0 1 1024.3 1024.6 0.0
 
Date/Time
EST
Temp
°C
App
Temp
°C
Dew
Point
Rel
Hum
%
Delta-T
°C
Wind Press
QNH
hPa
Press
MSL
hPa
Rain
since 9 am
mm
Dir
 
Spd
km/h
Gust
km/h
Spd
kts
Gust
kts
22/11:30pm 3.6 2.2 3.6 100 0.0 CALM 0 0 0 0 1024.6 - 0.0
22/11:00pm 3.7 2.3 3.7 100 0.0 CALM 0 0 0 0 1024.7 1025.0 0.0
22/10:30pm 3.8 2.4 3.8 100 0.0 CALM 0 0 0 0 1024.7 - 0.0
22/10:00pm 2.3 0.7 2.3 100 0.0 CALM 0 0 0 0 1024.8 1025.1 0.0
22/09:30pm 2.7 1.1 2.6 99 0.0 CALM 0 2 0 1 1024.6 - 0.0
22/09:00pm 3.1 1.6 3.0 99 0.0 CALM 0 0 0 0 1024.5 1024.8 0.0
22/08:30pm 4.2 2.1 4.1 99 0.0 ESE 4 4 2 2 1024.3 - 0.0
22/08:00pm 3.7 2.3 3.3 97 0.2 CALM 0 0 0 0 1024.3 1024.6 0.0
22/07:30pm 5.7 4.7 5.4 98 0.1 CALM 0 0 0 0 1024.2 - 0.0
22/07:00pm 6.1 5.1 5.7 97 0.2 CALM 0 0 0 0 1024.2 1024.5 0.0
22/06:30pm 7.0 6.2 6.6 97 0.2 CALM 0 0 0 0 1024.2 - 0.0
22/06:00pm 7.4 6.6 6.7 95 0.3 CALM 0 4 0 2 1024.2 1024.5 0.0
22/05:30pm 8.3 6.8 6.9 91 0.7 W 4 6 2 3 1024.1 - 0.0
22/05:00pm 9.4 8.0 7.3 87 1.0 W 4 4 2 2 1024.0 1024.3 0.0
22/04:30pm 10.7 9.5 7.9 83 1.4 WSW 4 6 2 3 1024.1 - 0.0
22/04:00pm 11.5 10.0 8.4 81 1.5 W 6 7 3 4 1024.1 1024.4 0.0
22/03:30pm 11.8 10.3 8.3 79 1.7 W 6 9 3 5 1024.2 - 0.0
22/03:00pm 11.5 9.7 7.8 78 1.8 W 7 9 4 5 1024.2 1024.5 0.0
22/02:30pm 12.4 11.1 7.5 72 2.4 ESE 4 7 2 4 1024.2 - 0.0
22/02:00pm 12.0 9.8 6.3 68 2.7 E 7 13 4 7 1024.3 1024.6 0.0
22/01:30pm 11.9 9.7 6.4 69 2.6 ESE 7 13 4 7 1024.6 - 0.0
22/01:00pm 11.4 9.3 6.5 72 2.3 ESE 7 11 4 6 1024.8 1025.1 0.0
22/12:30pm 11.1 9.1 7.2 77 1.9 E 7 15 4 8 1025.1 - 0.0
22/12:00pm 10.0 8.0 6.3 78 1.7 ESE 6 9 3 5 1025.6 1025.9 0.0
22/11:30am 9.4 7.7 6.1 80 1.5 ESE 4 7 2 4 1025.9 - 0.0
22/11:00am 8.4 6.2 5.5 82 1.3 E 6 7 3 4 1026.2 1026.5 0.0
22/10:30am 6.9 5.7 4.4 84 1.1 CALM 0 2 0 1 1026.3 - 0.0
22/10:00am 5.6 3.5 4.1 90 0.6 ESE 4 7 2 4 1026.3 1026.6 0.0
22/09:30am 3.8 1.6 3.5 98 0.1 E 4 6 2 3 1026.2 - 0.0
22/09:00am 1.7 0.0 1.7 100 0.0 CALM 0 0 0 0 1026.1 1026.4 0.0
22/08:30am -0.2 -2.2 -0.2 100 0.0 CALM 0 0 0 0 1026.1 - 0.0
22/08:00am -0.9 -3.0 -0.9 100 0.0 CALM 0 0 0 0 1026.0 1026.3 0.0
22/07:30am -1.4 -3.6 -1.4 100 0.0 CALM 0 0 0 0 1025.7 - 0.0
22/07:00am -1.4 -3.6 -1.4 100 0.0 CALM 0 0 0 0 1025.4 1025.7 0.0
22/06:30am -1.1 -3.2 -1.1 100 0.0 CALM 0 0 0 0 1025.2 - 0.0
22/06:00am -1.1 -3.6 -1.1 100 0.0 WSW 2 4 1 2 1025.1 1025.4 0.0
22/05:30am -0.9 -3.0 -0.9 100 0.0 CALM 0 0 0 0 1024.8 - 0.0
22/05:00am -0.2 -2.2 -0.2 100 0.0 CALM 0 0 0 0 1024.9 1025.2 0.0
22/04:30am -0.4 -2.4 -0.4 100 0.0 CALM 0 0 0 0 1024.6 - 0.0
22/04:00am -0.1 -2.1 -0.1 100 0.0 CALM 0 0 0 0 1024.4 1024.7 0.0
22/03:30am 0.4 -1.9 0.4 100 0.0 NW 2 4 1 2 1024.5 - 0.0
22/03:00am 0.6 -1.3 0.5 99 0.0 CALM 0 0 0 0 1024.7 1025.0 0.0
22/02:30am 1.1 -0.7 1.0 99 0.0 CALM 0 0 0 0 1024.7 - 0.0
22/02:00am 1.5 -0.3 1.4 99 0.0 CALM 0 0 0 0 1024.6 1024.9 0.0
22/01:30am 1.9 0.2 1.8 99 0.0 CALM 0 0 0 0 1024.7 - 0.0
22/01:00am 2.8 1.2 2.7 99 0.0 CALM 0 0 0 0 1024.6 1024.9 0.0
22/12:30am 3.6 2.2 3.6 100 0.0 CALM 0 0 0 0 1024.7 - 0.0
22/12:00am 3.8 2.4 3.8 100 0.0 CALM 0 0 0 0 1025.0 1025.3 0.0
 
Date/Time
EST
Temp
°C
App
Temp
°C
Dew
Point
Rel
Hum
%
Delta-T
°C
Wind Press
QNH
hPa
Press
MSL
hPa
Rain
since 9 am
mm
Dir
 
Spd
km/h
Gust
km/h
Spd
kts
Gust
kts
21/11:30pm 3.9 2.5 3.8 99 0.0 CALM 0 0 0 0 1025.0 - 0.0
21/11:00pm 3.7 2.3 3.6 99 0.0 CALM 0 0 0 0 1025.1 1025.4 0.0
21/10:30pm 3.7 2.3 3.4 98 0.1 CALM 0 0 0 0 1025.0 - 0.0
21/10:00pm 4.7 3.1 4.4 98 0.1 ESE 2 4 1 2 1025.1 1025.4 0.0
21/09:30pm 5.0 3.8 4.6 97 0.2 CALM 0 0 0 0 1025.0 - 0.0
21/09:00pm 5.9 4.9 5.5 97 0.2 CALM 0 0 0 0 1024.9 1025.2 0.0
21/08:30pm 6.1 5.1 5.5 96 0.3 CALM 0 0 0 0 1025.0 - 0.0
21/08:00pm 6.8 5.9 5.9 94 0.4 CALM 0 0 0 0 1025.1 1025.4 0.0
21/07:30pm 7.3 6.4 6.2 93 0.5 CALM 0 0 0 0 1025.1 - 0.0
21/07:00pm 7.6 6.7 6.2 91 0.6 CALM 0 0 0 0 1025.0 1025.3 0.0
21/06:30pm 8.2 7.4 6.7 90 0.7 CALM 0 0 0 0 1024.8 - 0.0
21/06:00pm 9.1 8.3 6.5 84 1.2 CALM 0 0 0 0 1024.8 1025.1 0.0
21/05:30pm 9.6 8.8 6.5 81 1.5 CALM 0 0 0 0 1024.6 - 0.0
21/05:00pm 10.4 9.6 6.5 77 1.8 CALM 0 0 0 0 1024.4 1024.7 0.0
21/04:30pm 11.2 10.4 6.7 74 2.1 CALM 0 0 0 0 1024.3 - 0.0
21/04:00pm 11.0 10.2 6.6 74 2.1 CALM 0 0 0 0 1024.3 1024.6 0.0
21/03:30pm 11.2 10.4 6.5 73 2.2 CALM 0 4 0 2 1024.2 - 0.0
21/03:00pm 11.6 10.8 6.3 70 2.5 CALM 0 0 0 0 1024.1 1024.4 0.0
21/02:30pm 11.7 10.9 6.4 70 2.5 CALM 0 0 0 0 1024.1 - 0.0
21/02:00pm 11.7 10.9 6.4 70 2.5 CALM 0 0 0 0 1024.2 1024.5 0.0
21/01:30pm 11.0 9.8 6.6 74 2.1 ENE 2 4 1 2 1024.5 - 0.0
21/01:00pm 10.6 9.8 6.7 77 1.8 CALM 0 4 0 2 1024.6 1024.9 0.0
21/12:30pm 9.8 8.4 7.1 83 1.3 ESE 4 6 2 3 1025.0 - 0.0
21/12:00pm 9.6 8.6 7.4 86 1.0 E 2 4 1 2 1025.4 1025.7 0.0
21/11:30am 8.7 7.2 6.8 88 0.9 ESE 4 6 2 3 1025.7 - 0.0
21/11:00am 7.9 6.3 6.5 91 0.6 ESE 4 6 2 3 1026.0 1026.3 0.0
21/10:30am 6.8 5.2 6.4 97 0.2 ESE 4 6 2 3 1026.1 - 0.0
21/10:00am 5.9 5.0 5.9 100 0.0 CALM 0 0 0 0 1026.3 1026.6 0.0
21/09:30am 5.1 4.0 5.1 100 0.0 CALM 0 0 0 0 1026.4 - 0.0
21/09:00am 4.3 3.0 4.3 100 0.0 CALM 0 0 0 0 1026.4 1026.7 0.2
21/08:30am 3.6 1.8 3.6 100 0.0 SE 2 4 1 2 1026.3 - 0.2
21/08:00am 3.5 1.7 3.5 100 0.0 SE 2 4 1 2 1026.2 1026.5 0.2
21/07:30am 3.7 1.9 3.7 100 0.0 SE 2 4 1 2 1026.1 - 0.0
21/07:00am 4.7 3.5 4.7 100 0.0 CALM 0 0 0 0 1025.8 1026.1 0.0
21/06:30am 4.9 3.4 4.9 100 0.0 SE 2 4 1 2 1025.7 - 0.0
21/06:00am 4.2 2.9 4.2 100 0.0 CALM 0 0 0 0 1025.6 1025.9 0.0
21/05:30am 3.8 2.4 3.8 100 0.0 CALM 0 0 0 0 1025.6 - 0.0
21/05:00am 3.3 1.9 3.3 100 0.0 CALM 0 0 0 0 1025.6 1025.9 0.0
21/04:30am 2.9 1.4 2.9 100 0.0 CALM 0 0 0 0 1025.6 - 0.0
21/04:00am 3.3 1.9 3.3 100 0.0 CALM 0 0 0 0 1025.6 1025.9 0.0
21/03:30am 3.5 2.1 3.5 100 0.0 CALM 0 0 0 0 1025.7 - 0.0
21/03:00am 4.2 2.9 4.2 100 0.0 CALM 0 0 0 0 1025.8 1026.1 0.0
21/02:30am 4.8 3.6 4.8 100 0.0 CALM 0 0 0 0 1025.8 - 0.0
21/02:00am 4.5 3.3 4.5 100 0.0 CALM 0 0 0 0 1025.7 1026.0 0.0
21/01:30am 4.5 2.9 4.5 100 0.0 SE 2 2 1 1 1025.8 - 0.0
21/01:00am 5.4 4.3 5.3 99 0.0 CALM 0 0 0 0 1026.0 1026.3 0.0
21/12:30am 6.3 5.5 6.3 100 0.0 CALM 0 0 0 0 1026.1 - 0.0
21/12:00am 6.5 5.7 6.5 100 0.0 CALM 0 0 0 0 1026.4 1026.7 0.0
 
Date/Time
EST
Temp
°C
App
Temp
°C
Dew
Point
Rel
Hum
%
Delta-T
°C
Wind Press
QNH
hPa
Press
MSL
hPa
Rain
since 9 am
mm
Dir
 
Spd
km/h
Gust
km/h
Spd
kts
Gust
kts
20/11:30pm 5.2 4.1 5.1 99 0.0 CALM 0 0 0 0 1026.7 - 0.0
20/11:00pm 5.3 4.2 5.2 99 0.0 CALM 0 0 0 0 1026.6 1026.9 0.0
20/10:30pm 6.3 5.4 6.2 99 0.0 CALM 0 0 0 0 1026.5 - 0.0
20/10:00pm 6.5 5.7 6.4 99 0.0 CALM 0 0 0 0 1026.6 1026.9 0.0
20/09:30pm 6.9 6.1 6.6 98 0.1 CALM 0 0 0 0 1026.5 - 0.0
20/09:00pm 7.2 5.7 6.9 98 0.1 ENE 4 4 2 2 1026.5 1026.8 0.0
20/08:30pm 7.0 5.5 6.6 97 0.2 NNE 4 7 2 4 1026.7 - 0.0

Other Formats:

Comma delimited format used in spreadsheet applications
http://www.bom.gov.au/fwo/IDV60801/IDV60801.99806.axf

JavaScript Object Notation format (JSON) in row-major order
http://www.bom.gov.au/fwo/IDV60801/IDV60801.99806.json